Time;durP1;ratioP1;P1;durP2;ratioP2;P2;SDS_P1;SDS_P2;PMS_P1;PMS_P2;Temp;Humidity;BMP_temperature;BMP_pressure;BME280_temperature;BME280_humidity;BME280_pressure;Samples;Min_cycle;Max_cycle;Signal;HPM_P1;HPM_P2
2024/03/27 00:00:30;;;;;;;2.00;1.33;;;13.70;99.90;;;13.90;53.49;98232.38;5936941;23;99974;-41
2024/03/27 00:02:56;;;;;;;1.60;1.47;;;13.70;99.90;;;13.86;54.39;98230.94;5975140;22;97573;-45
2024/03/27 00:05:22;;;;;;;1.50;1.20;;;13.70;99.90;;;13.88;54.19;98234.28;5890829;22;99446;-44
2024/03/27 00:07:49;;;;;;;5.00;1.70;;;13.70;99.90;;;13.87;53.32;98232.59;5812177;23;98539;-42
2024/03/27 00:10:19;;;;;;;4.63;1.80;;;13.70;99.90;;;13.88;53.24;98234.28;5880490;23;103616;-46
2024/03/27 00:12:48;;;;;;;1.70;1.13;;;13.70;99.90;;;13.94;52.65;98236.41;6009904;22;102445;-42
2024/03/27 00:15:28;;;;;;;2.63;1.77;;;13.80;99.90;;;13.92;52.51;98241.00;5904647;23;98311;-44
2024/03/27 00:18:01;;;;;;;3.67;1.60;;;13.70;99.90;;;13.90;53.25;98234.19;5943388;22;99034;-45
2024/03/27 00:20:40;;;;;;;2.63;1.80;;;13.70;99.90;;;13.86;55.45;98230.94;5997643;23;97905;-44
2024/03/27 00:23:07;;;;;;;2.60;1.77;;;13.70;99.90;;;13.81;56.65;98227.84;5919567;23;102858;-44
2024/03/27 00:25:42;;;;;;;2.73;1.40;;;13.60;99.90;;;13.76;56.84;98230.06;6001308;22;97542;-45
2024/03/27 00:28:28;;;;;;;3.13;1.57;;;13.60;99.90;;;13.76;56.41;98231.88;5857557;23;97612;-44
2024/03/27 00:31:05;;;;;;;4.87;1.33;;;13.50;99.90;;;13.71;57.16;98237.56;5998920;22;102278;-44
2024/03/27 00:33:33;;;;;;;3.80;1.80;;;13.50;99.90;;;13.67;56.85;98237.00;5998932;23;101655;-46
2024/03/27 00:36:08;;;;;;;3.27;1.93;;;13.50;99.90;;;13.67;57.02;98233.50;5947197;23;112522;-43
2024/03/27 00:38:35;;;;;;;2.90;1.60;;;13.40;99.90;;;13.63;57.32;98240.88;5834836;23;105356;-45
2024/03/27 00:41:12;;;;;;;3.70;1.80;;;13.40;99.90;;;13.66;55.37;98232.66;5885529;23;100824;-43
2024/03/27 00:44:05;;;;;;;6.90;2.43;;;13.40;99.90;;;13.72;53.95;98228.63;5957141;23;102876;-44
2024/03/27 00:46:31;;;;;;;3.43;2.23;;;13.40;99.90;;;13.77;52.07;98234.41;5904651;23;97735;-50
2024/03/27 00:49:06;;;;;;;2.87;1.60;;;13.50;99.90;;;13.86;51.11;98236.22;5811363;22;105653;-44
2024/03/27 00:51:35;;;;;;;4.10;2.10;;;13.70;99.90;;;13.86;52.91;98230.94;5976402;22;98031;-44
2024/03/27 00:54:01;;;;;;;3.67;1.53;;;13.70;99.90;;;13.89;51.75;98229.84;6002242;23;99716;-43
2024/03/27 00:56:27;;;;;;;1.73;1.40;;;13.70;99.90;;;13.92;49.02;98230.41;5929150;22;98293;-45
2024/03/27 00:58:53;;;;;;;2.50;1.40;;;13.70;99.90;;;13.98;50.67;98229.84;5972775;22;97599;-43
2024/03/27 01:01:20;;;;;;;1.80;1.27;;;13.80;99.90;;;14.08;51.35;98223.75;6025502;22;99206;-47
2024/03/27 01:03:55;;;;;;;1.47;1.37;;;13.80;99.90;;;14.03;49.86;98220.66;5960012;23;109885;-40
2024/03/27 01:06:20;;;;;;;4.07;1.30;;;13.90;99.90;;;14.02;48.05;98227.78;6030714;22;98140;-44
2024/03/27 01:08:46;;;;;;;2.57;1.30;;;13.80;99.90;;;14.00;49.75;98227.91;6028403;22;120007;-45
2024/03/27 01:11:20;;;;;;;2.20;1.40;;;13.80;99.90;;;13.98;49.70;98229.84;6025684;22;103306;-43
2024/03/27 01:13:48;;;;;;;1.90;1.40;;;13.80;99.90;;;13.99;50.23;98225.41;5994077;23;121635;-47
2024/03/27 01:16:18;;;;;;;3.47;1.70;;;13.80;99.90;;;13.99;49.34;98230.69;6034576;23;123543;-45
2024/03/27 01:18:45;;;;;;;1.20;1.10;;;13.80;99.90;;;14.00;51.09;98217.31;6038695;23;102959;-40
2024/03/27 01:21:27;;;;;;;2.03;1.40;;;13.80;99.90;;;14.00;52.79;98212.00;6012401;23;98121;-43
2024/03/27 01:24:02;;;;;;;1.67;1.30;;;13.80;99.90;;;13.99;52.50;98210.34;6001486;22;103121;-46
2024/03/27 01:26:33;;;;;;;2.43;1.20;;;13.80;99.90;;;13.93;51.70;98216.19;5941175;23;97664;-42
2024/03/27 01:28:59;;;;;;;3.30;1.70;;;13.70;99.90;;;13.90;52.59;98213.81;5980195;23;97828;-43
2024/03/27 01:31:25;;;;;;;3.80;1.50;;;13.70;99.90;;;13.93;52.05;98210.06;5894501;23;105404;-44
2024/03/27 01:33:56;;;;;;;3.53;1.23;;;13.70;99.90;;;13.97;53.22;98201.69;5974313;23;97884;-41
2024/03/27 01:39:04;;;;;;;4.27;1.43;;;13.70;99.90;;;13.90;53.52;98194.44;5955462;22;97951;-33
2024/03/27 01:41:34;;;;;;;2.60;1.47;;;13.60;99.90;;;13.84;54.18;98190.50;5900778;22;99479;-33
2024/03/27 01:44:01;;;;;;;1.40;1.30;;;13.60;99.90;;;13.79;54.20;98189.22;5966047;22;104897;-34
2024/03/27 01:46:35;;;;;;;2.37;1.63;;;13.50;99.90;;;13.74;53.33;98184.31;5978921;22;106263;-40
2024/03/27 01:49:07;;;;;;;3.47;1.60;;;13.50;99.90;;;13.78;52.87;98184.91;5911792;23;97657;-32
2024/03/27 01:51:33;;;;;;;2.97;1.67;;;13.50;99.90;;;13.78;53.54;98185.75;5996172;22;108334;-34
2024/03/27 01:53:59;;;;;;;2.00;1.30;;;13.50;99.90;;;13.77;51.59;98189.38;5997641;22;98694;-34
2024/03/27 01:56:26;;;;;;;2.40;1.53;;;13.50;99.90;;;13.90;52.74;98182.03;5938616;23;106199;-33
2024/03/27 01:59:03;;;;;;;1.87;1.40;;;13.60;99.90;;;14.01;52.64;98175.75;5918659;22;103294;-36
2024/03/27 02:01:39;;;;;;;2.20;1.30;;;13.70;99.90;;;14.03;51.94;98175.59;6003150;22;102071;-36
2024/03/27 02:04:12;;;;;;;2.77;1.40;;;13.70;99.90;;;13.95;51.38;98177.13;6045341;22;109405;-34
2024/03/27 02:06:38;;;;;;;2.67;1.60;;;13.70;99.90;;;13.94;52.25;98186.06;6020982;22;105236;-32
2024/03/27 02:09:29;;;;;;;3.77;1.20;;;13.70;99.90;;;13.89;50.83;98182.16;5878537;22;107730;-34
2024/03/27 02:11:56;;;;;;;4.90;1.43;;;13.60;99.90;;;13.86;52.14;98183.25;6047832;23;104775;-34
2024/03/27 02:14:22;;;;;;;3.60;1.60;;;13.60;99.90;;;13.84;52.02;98179.88;5962336;23;105717;-33
2024/03/27 02:16:50;;;;;;;2.30;1.30;;;13.60;99.90;;;13.93;52.44;98173.78;5914205;23;113027;-34
2024/03/27 02:19:16;;;;;;;3.57;1.90;;;13.60;99.90;;;13.88;52.68;98170.69;5958466;23;112808;-34
2024/03/27 02:21:53;;;;;;;4.90;1.70;;;13.60;99.90;;;13.97;51.72;98175.19;5929536;23;99628;-33
2024/03/27 02:25:05;;;;;;;1.60;1.23;;;13.70;99.90;;;13.93;52.41;98180.91;5882602;23;109471;-32
2024/03/27 02:27:36;;;;;;;2.07;1.23;;;13.60;99.90;;;13.99;51.63;98173.22;5984557;22;99636;-38
2024/03/27 02:30:06;;;;;;;3.00;1.07;;;13.60;99.90;;;14.11;51.40;98162.53;6046888;22;97344;-37
2024/03/27 02:32:39;;;;;;;3.97;1.20;;;13.70;99.90;;;14.18;51.72;98155.72;5861328;22;99445;-33
2024/03/27 02:35:19;;;;;;;2.17;1.23;;;13.80;99.90;;;14.27;50.40;98155.69;6005651;22;124814;-34
2024/03/27 02:37:59;;;;;;;3.10;1.20;;;13.90;99.90;;;14.34;48.97;98160.47;6035959;22;97806;-34
2024/03/27 02:40:28;;;;;;;1.70;1.30;;;14.00;99.90;;;14.40;50.50;98147.47;6033449;22;98700;-38
2024/03/27 02:42:59;;;;;;;1.63;0.87;;;14.00;99.90;;;14.43;50.16;98138.41;5827672;23;101112;-35
2024/03/27 02:45:25;;;;;;;2.20;1.47;;;14.10;99.90;;;14.36;50.51;98137.31;5936867;23;101978;-38
2024/03/27 02:47:51;;;;;;;2.60;1.40;;;14.00;99.90;;;14.33;49.28;98138.41;5992033;22;116956;-34
2024/03/27 02:50:29;;;;;;;1.20;0.97;;;14.00;99.90;;;14.30;49.78;98141.31;5987076;22;106557;-41
2024/03/27 02:53:01;;;;;;;3.20;1.87;;;14.00;99.90;;;14.18;50.00;98134.50;6010576;22;101737;-45
2024/03/27 02:55:29;;;;;;;2.63;1.50;;;13.90;99.90;;;14.10;50.75;98137.84;5992011;22;98840;-37
2024/03/27 02:58:13;;;;;;;5.97;1.27;;;13.80;99.90;;;13.99;51.92;98136.13;6058657;22;97871;-40
2024/03/27 03:00:49;;;;;;;4.00;1.43;;;13.70;99.90;;;13.90;52.25;98136.97;5756237;23;97614;-39
2024/03/27 03:03:15;;;;;;;2.47;1.20;;;13.60;99.90;;;13.78;52.46;98132.75;5869030;23;104042;-38
2024/03/27 03:05:41;;;;;;;3.53;1.33;;;13.50;99.90;;;13.69;54.15;98149.44;6019683;22;98166;-41
2024/03/27 03:08:07;;;;;;;1.43;1.00;;;13.40;99.90;;;13.58;53.39;98146.91;5911063;22;111348;-44
2024/03/27 03:10:50;;;;;;;;;;;;;;;;;;;;;
2024/03/27 03:13:20;;;;;;;2.73;1.83;;;13.30;99.90;;;13.53;53.97;98138.53;5850630;22;132386;-38
2024/03/27 03:15:54;;;;;;;1.67;1.10;;;13.30;99.90;;;13.49;53.35;98137.13;5878704;23;115615;-41
2024/03/27 03:18:22;;;;;;;3.47;1.60;;;13.20;99.90;;;13.47;53.83;98128.47;5973771;22;98333;-36
2024/03/27 03:20:52;;;;;;;2.13;1.37;;;13.20;99.90;;;13.46;53.09;98132.09;5788002;22;107785;-41
2024/03/27 03:23:23;;;;;;;2.13;1.30;;;13.20;99.90;;;13.45;53.67;98135.69;5913289;23;102035;-37
2024/03/27 03:25:59;;;;;;;1.30;1.20;;;13.20;99.90;;;13.50;53.21;98128.22;5902592;23;118677;-41
2024/03/27 03:28:39;;;;;;;2.73;1.40;;;13.20;99.90;;;13.48;54.05;98119.56;5930356;23;97194;-36
2024/03/27 03:31:25;;;;;;;4.27;1.60;;;13.20;99.90;;;13.55;52.31;98129.47;5844532;22;99518;-41
2024/03/27 03:33:55;;;;;;;1.60;1.33;;;13.20;99.90;;;13.57;52.74;98124.03;5946020;22;102743;-41
2024/03/27 03:36:28;;;;;;;1.90;1.47;;;13.30;99.90;;;13.58;52.09;98131.00;6058120;22;99867;-42
2024/03/27 03:38:54;;;;;;;3.17;1.63;;;13.30;99.90;;;13.65;49.87;98116.28;5996362;22;117530;-42
2024/03/27 03:41:20;;;;;;;2.63;1.40;;;13.40;99.90;;;13.75;51.39;98109.19;5916637;22;110204;-43
2024/03/27 03:43:45;;;;;;;2.07;1.27;;;13.40;99.90;;;13.81;52.06;98121.88;5885594;22;102091;-37
2024/03/27 03:46:11;;;;;;;2.63;1.30;;;13.50;99.90;;;13.91;51.89;98116.63;5922069;22;123597;-40
2024/03/27 03:48:44;;;;;;;4.03;1.17;;;13.60;99.90;;;14.04;50.91;98100.47;6026366;22;97701;-41
2024/03/27 03:51:10;;;;;;;3.43;1.17;;;13.70;99.90;;;14.18;50.15;98097.41;6077143;22;117806;-44
2024/03/27 03:53:39;;;;;;;1.77;1.40;;;13.80;99.90;;;14.28;51.38;98090.25;6042023;22;110232;-40
2024/03/27 03:56:19;;;;;;;3.70;1.20;;;13.90;99.90;;;14.26;50.59;98097.53;5890469;22;100429;-41
2024/03/27 03:58:57;;;;;;;1.57;1.10;;;13.90;99.90;;;14.25;49.13;98098.50;6042498;22;98163;-43
2024/03/27 04:01:25;;;;;;;2.57;1.07;;;13.90;99.90;;;14.38;51.25;98096.41;6008425;22;97519;-41
2024/03/27 04:04:08;;;;;;;1.87;1.70;;;14.00;99.90;;;14.43;49.18;98085.38;5994346;22;99643;-43
2024/03/27 04:06:52;;;;;;;5.33;1.67;;;14.10;99.90;;;14.42;48.39;98084.53;5922697;22;99091;-37
2024/03/27 04:09:47;;;;;;;4.83;1.77;;;14.10;99.90;;;14.36;49.91;98085.09;6012909;22;101878;-42
2024/03/27 04:12:33;;;;;;;1.63;1.00;;;14.00;99.90;;;14.42;50.82;98067.78;6094125;22;97469;-41
2024/03/27 04:15:09;;;;;;;2.80;1.53;;;14.10;99.90;;;14.33;50.80;98066.00;6016567;22;104706;-41
2024/03/27 04:17:34;;;;;;;2.10;1.30;;;14.00;99.90;;;14.23;50.05;98066.00;6056884;22;98171;-41
2024/03/27 04:20:16;;;;;;;2.57;1.40;;;13.90;99.90;;;14.19;49.61;98061.97;5966244;22;100000;-48
2024/03/27 04:22:47;;;;;;;2.30;1.13;;;13.90;99.90;;;14.11;50.56;98064.47;6033772;22;99087;-42
2024/03/27 04:25:13;;;;;;;2.67;1.10;;;13.80;99.90;;;14.08;51.21;98060.28;6028283;22;106371;-42
2024/03/27 04:27:44;;;;;;;3.53;1.10;;;13.80;99.90;;;14.04;52.51;98063.34;6035772;22;113593;-41
2024/03/27 04:30:17;;;;;;;2.53;1.40;;;13.80;99.90;;;14.07;49.78;98063.91;6041812;22;99181;-40
2024/03/27 04:32:49;;;;;;;3.43;1.53;;;13.80;99.90;;;14.07;51.08;98063.06;5923610;22;97897;-37
2024/03/27 04:35:27;;;;;;;5.03;1.70;;;13.80;99.90;;;14.10;52.51;98065.44;5897403;23;104158;-39
2024/03/27 04:37:58;;;;;;;3.33;1.63;;;13.80;99.90;;;14.07;50.72;98078.97;5892234;22;108836;-45
2024/03/27 04:40:36;;;;;;;2.00;1.40;;;13.80;99.90;;;14.08;51.91;98075.34;5936720;22;97179;-41
2024/03/27 04:43:06;;;;;;;4.00;1.63;;;13.80;99.90;;;14.08;52.36;98076.19;5887107;22;99786;-42
2024/03/27 04:45:45;;;;;;;2.17;1.40;;;13.80;99.90;;;14.11;52.73;98085.66;5936683;22;116142;-41
2024/03/27 04:48:13;;;;;;;4.93;1.40;;;13.80;99.90;;;14.05;52.64;98094.19;5857697;23;133473;-41
2024/03/27 04:50:48;;;;;;;1.87;1.30;;;13.80;99.90;;;13.98;52.40;98092.06;5938583;22;99855;-40
2024/03/27 04:53:31;;;;;;;2.67;1.47;;;13.70;99.90;;;13.97;53.44;98097.50;5949861;22;97553;-42
2024/03/27 04:56:10;;;;;;;2.93;1.60;;;13.70;99.90;;;13.84;53.44;98105.72;5993360;22;102580;-47
2024/03/27 04:58:38;;;;;;;2.60;1.60;;;13.60;99.90;;;13.76;54.23;98128.56;6078500;22;118319;-43
2024/03/27 05:01:11;;;;;;;3.47;1.47;;;13.50;99.90;;;13.72;54.04;98122.69;5822480;22;100495;-40
2024/03/27 05:03:57;;;;;;;1.83;1.43;;;13.50;99.90;;;13.69;53.79;98122.97;5922996;23;113271;-42
2024/03/27 05:06:38;;;;;;;2.97;1.40;;;13.40;99.90;;;13.65;54.49;98138.28;6018772;22;103562;-44
2024/03/27 05:09:16;;;;;;;1.70;1.30;;;13.40;99.90;;;13.61;51.48;98146.66;5910819;22;98385;-47
2024/03/27 05:12:01;;;;;;;2.50;1.73;;;13.40;99.90;;;13.64;51.75;98141.06;6015557;22;115133;-41
2024/03/27 05:14:42;;;;;;;2.43;1.60;;;13.40;99.90;;;13.68;51.48;98134.53;5983572;22;98038;-41
2024/03/27 05:17:12;;;;;;;2.60;1.87;;;13.50;99.90;;;13.73;52.12;98123.53;5921588;22;105213;-44
2024/03/27 05:19:39;;;;;;;4.53;1.60;;;13.50;99.90;;;13.70;50.22;98130.78;5915974;22;101953;-42
2024/03/27 05:22:15;;;;;;;3.30;1.57;;;13.50;99.90;;;13.78;52.12;98129.28;5863897;22;98937;-39
2024/03/27 05:24:59;;;;;;;5.60;1.30;;;13.60;99.90;;;13.73;52.88;98115.56;5871433;22;98672;-44
2024/03/27 05:27:25;;;;;;;2.13;1.30;;;13.50;99.90;;;13.74;52.62;98125.19;5921191;23;108355;-44
2024/03/27 05:30:04;;;;;;;1.80;1.40;;;13.50;99.90;;;13.80;52.36;98119.38;6051333;22;115281;-39
2024/03/27 05:32:32;;;;;;;2.97;1.10;;;13.60;99.90;;;13.94;52.24;98111.88;5877023;22;97624;-42
2024/03/27 05:35:37;;;;;;;1.50;1.10;;;13.60;99.90;;;14.10;52.33;98105.19;5917459;22;98880;-45
2024/03/27 05:38:20;;;;;;;2.93;1.73;;;13.70;99.90;;;14.07;50.31;98118.72;5899970;22;101592;-37
2024/03/27 05:40:47;;;;;;;2.60;1.60;;;13.80;99.90;;;14.10;51.00;98121.09;5911411;22;103544;-46
2024/03/27 05:43:21;;;;;;;2.70;1.90;;;13.80;99.90;;;14.00;50.54;98132.50;5918619;22;106151;-42
2024/03/27 05:45:53;;;;;;;5.13;1.50;;;13.70;99.90;;;13.92;52.08;98135.03;5942149;22;120062;-44
2024/03/27 05:48:32;;;;;;;2.57;1.47;;;13.70;99.90;;;13.89;52.13;98140.59;6051766;22;112653;-35
2024/03/27 05:50:58;;;;;;;3.30;1.60;;;13.70;99.90;;;13.89;53.40;98147.72;5877040;22;104116;-41
2024/03/27 05:53:23;;;;;;;3.50;1.80;;;13.60;99.90;;;13.89;51.17;98147.72;5962384;22;107221;-45
2024/03/27 05:55:59;;;;;;;2.10;1.63;;;13.60;99.90;;;13.88;51.93;98146.84;5980564;22;108364;-40
2024/03/27 05:58:36;;;;;;;7.23;2.03;;;13.60;99.90;;;13.88;53.23;98144.19;6048907;22;103982;-41
2024/03/27 06:01:09;;;;;;;4.30;1.67;;;13.70;99.90;;;13.86;52.45;98167.34;6027738;22;97529;-37
2024/03/27 06:03:51;;;;;;;2.03;1.30;;;13.70;99.90;;;13.86;51.49;98167.34;6025239;22;109890;-47
2024/03/27 06:06:25;;;;;;;4.37;1.53;;;13.70;99.90;;;13.81;52.36;98174.03;5905465;22;97554;-40
2024/03/27 06:08:54;;;;;;;1.77;1.57;;;13.60;99.90;;;13.81;51.22;98161.63;6036531;22;100440;-41
2024/03/27 06:11:43;;;;;;;3.67;1.47;;;13.60;99.90;;;13.79;52.10;98160.09;6007424;22;98706;-45
2024/03/27 06:14:13;;;;;;;6.60;1.80;;;13.60;99.90;;;13.80;52.63;98170.53;5983812;22;98335;-40
2024/03/27 06:16:42;;;;;;;4.00;1.67;;;13.60;99.90;;;13.79;52.66;98182.13;5946293;22;99336;-43
2024/03/27 06:19:12;;;;;;;3.47;1.87;;;13.60;99.90;;;13.78;54.39;98175.16;5965229;22;112096;-41
2024/03/27 06:21:44;;;;;;;2.40;1.70;;;13.50;99.90;;;13.81;53.76;98176.69;5964566;22;97502;-36
2024/03/27 06:24:16;;;;;;;3.17;1.70;;;13.60;99.90;;;13.78;53.22;98182.25;5914370;22;98330;-36
2024/03/27 06:26:47;;;;;;;2.37;1.77;;;13.60;99.90;;;13.77;54.01;98178.78;5868135;22;97547;-42
2024/03/27 06:29:13;;;;;;;3.70;1.83;;;13.60;99.90;;;13.73;53.83;98187.94;5999182;22;102510;-41
2024/03/27 06:31:39;;;;;;;2.73;1.90;;;13.50;99.90;;;13.71;55.17;98200.47;5925487;22;102020;-39
2024/03/27 06:34:12;;;;;;;2.73;1.60;;;13.50;99.90;;;13.71;54.58;98200.47;5909054;22;101979;-37
2024/03/27 06:36:47;;;;;;;3.20;1.80;;;13.50;99.90;;;13.86;53.73;98187.69;5849464;23;98753;-37
2024/03/27 06:39:23;;;;;;;2.50;1.57;;;13.50;99.90;;;13.80;54.13;98194.38;5794988;22;121703;-42
2024/03/27 06:42:11;;;;;;;4.23;1.87;;;13.60;99.90;;;13.84;54.72;98200.25;5899550;22;126045;-39
2024/03/27 06:44:38;;;;;;;2.47;1.77;;;13.60;99.90;;;13.80;53.75;98210.28;5981560;22;105703;-40
2024/03/27 06:47:04;;;;;;;2.63;1.80;;;13.60;99.90;;;13.87;53.78;98211.41;5920132;23;97321;-40
2024/03/27 06:49:41;;;;;;;4.23;1.87;;;13.70;99.90;;;13.87;54.87;98211.41;5979727;22;99729;-37
2024/03/27 06:52:14;;;;;;;4.50;1.73;;;13.70;99.90;;;13.92;53.74;98214.50;5983590;22;108609;-43
2024/03/27 06:54:39;;;;;;;1.87;1.50;;;13.70;99.90;;;13.91;53.72;98223.44;6050694;22;105902;-36
2024/03/27 06:57:29;;;;;;;4.17;2.10;;;13.70;99.90;;;13.93;53.64;98221.50;5976619;22;116395;-38
2024/03/27 07:00:05;;;;;;;3.50;2.17;;;13.70;99.90;;;13.97;52.98;98222.88;5969492;22;101997;-46
2024/03/27 07:02:35;;;;;;;3.37;1.17;;;13.70;99.90;;;14.06;52.75;98231.84;6040366;22;99507;-41
2024/03/27 07:05:12;;;;;;;2.90;1.90;;;13.80;99.90;;;14.08;53.84;98218.47;6059059;22;97371;-42
2024/03/27 07:07:52;;;;;;;3.07;2.03;;;13.80;99.90;;;14.06;53.87;98209.81;5884265;23;97378;-43
2024/03/27 07:10:25;;;;;;;2.43;2.10;;;13.80;99.90;;;13.99;53.47;98212.97;5900209;22;102771;-38
2024/03/27 07:13:00;;;;;;;3.20;2.17;;;13.80;99.90;;;13.96;55.08;98215.91;5934266;22;102103;-40
2024/03/27 07:15:57;;;;;;;5.07;2.30;;;13.80;99.90;;;13.93;54.49;98228.59;5802691;22;97759;-46
2024/03/27 07:18:37;;;;;;;4.17;1.90;;;13.80;99.90;;;13.90;54.06;98221.75;5909157;22;97470;-44
2024/03/27 07:21:05;;;;;;;2.57;1.97;;;13.70;99.90;;;13.90;55.07;98220.94;5969798;22;102309;-37
2024/03/27 07:23:46;;;;;;;2.97;1.93;;;13.70;99.90;;;13.90;55.31;98216.47;5945353;22;99156;-45
2024/03/27 07:26:12;;;;;;;4.00;2.10;;;13.70;99.90;;;13.87;53.45;98206.09;5909145;23;102054;-40
2024/03/27 07:28:55;;;;;;;6.47;2.43;;;13.70;99.90;;;13.88;54.11;98205.13;5969376;22;101062;-40
2024/03/27 07:31:34;;;;;;;3.97;2.27;;;13.70;99.90;;;13.90;55.08;98205.88;5997864;22;104156;-36
2024/03/27 07:34:15;;;;;;;5.60;2.33;;;13.70;99.90;;;13.93;55.06;98204.75;5944096;22;120994;-43
2024/03/27 07:36:49;;;;;;;3.20;2.10;;;13.80;99.90;;;13.97;54.04;98212.28;5828610;23;98781;-42
2024/03/27 07:39:42;;;;;;;4.40;2.70;;;13.80;99.90;;;13.95;53.89;98214.25;5904693;22;100422;-36
2024/03/27 07:42:21;;;;;;;3.93;2.33;;;13.80;99.90;;;13.97;54.17;98212.28;5824357;22;102350;-43
2024/03/27 07:52:43;;;;;;;4.97;2.20;;;14.00;99.90;;;14.34;52.76;98219.63;5905666;22;98178;-44
2024/03/27 07:59:33;;;;;;;6.63;2.27;;;14.40;99.90;;;14.49;52.59;98218.28;5755401;22;104049;-46
2024/03/27 08:02:47;;;;;;;6.63;2.10;;;14.30;99.90;;;14.42;53.03;98218.94;5802570;22;99564;-41
2024/03/27 08:05:33;;;;;;;6.33;2.33;;;14.30;99.90;;;14.47;52.79;98222.06;5791686;22;105721;-45
2024/03/27 08:08:08;;;;;;;4.87;2.43;;;14.30;99.90;;;14.52;52.64;98218.00;5856203;22;102469;-49
2024/03/27 08:10:57;;;;;;;5.07;2.13;;;14.40;99.90;;;14.61;52.40;98226.09;5678336;22;97667;-42
2024/03/27 08:13:34;;;;;;;3.23;1.73;;;14.40;99.90;;;14.72;52.07;98224.16;5781690;23;97528;-44
2024/03/27 08:16:35;;;;;;;3.70;2.10;;;14.60;99.90;;;14.75;52.72;98223.88;5770587;22;101544;-44
2024/03/27 08:19:11;;;;;;;3.87;1.50;;;14.70;99.90;;;14.69;53.34;98223.59;5760853;23;101914;-39
2024/03/27 08:21:51;;;;;;;2.47;1.43;;;14.60;99.90;;;14.56;54.17;98224.72;5866599;22;98399;-46
2024/03/27 08:24:41;;;;;;;6.90;1.53;;;14.50;99.90;;;14.57;53.97;98237.00;6045683;22;109260;-46
2024/03/27 08:27:16;;;;;;;3.77;1.40;;;14.40;99.90;;;14.65;53.23;98232.81;5839443;22;102630;-45
2024/03/27 08:29:46;;;;;;;3.40;1.30;;;14.50;99.90;;;14.75;53.00;98237.13;5890637;22;125533;-44
2024/03/27 08:32:19;;;;;;;1.53;1.30;;;14.60;99.90;;;14.86;52.18;98236.16;5865187;22;107500;-48
2024/03/27 08:35:11;;;;;;;1.87;1.60;;;14.70;99.90;;;14.84;53.63;98238.13;5774702;23;105009;-41
2024/03/27 08:38:26;;;;;;;1.50;1.10;;;14.70;99.90;;;14.95;52.03;98247.78;5840228;22;104685;-47
2024/03/27 08:41:10;;;;;;;4.43;1.10;;;14.80;99.90;;;14.93;51.95;98236.47;5909071;22;104481;-42
2024/03/27 08:43:51;;;;;;;3.20;1.00;;;14.80;99.90;;;14.93;52.54;98234.66;5903050;22;109231;-42
2024/03/27 08:46:35;;;;;;;1.27;0.83;;;14.90;99.90;;;14.88;53.40;98223.59;5985377;22;123557;-44
2024/03/27 08:49:56;;;;;;;1.90;0.83;;;14.80;99.90;;;14.89;52.76;98219.97;5770280;22;97996;-42
2024/03/27 08:52:46;;;;;;;2.83;0.80;;;14.80;99.90;;;14.88;52.79;98229.72;5900568;22;101168;-46
2024/03/27 08:55:39;;;;;;;1.03;0.70;;;14.90;99.90;;;14.96;52.15;98231.69;5886512;22;101894;-44
2024/03/27 08:58:31;;;;;;;1.10;0.77;;;15.00;99.90;;;15.01;53.02;98234.75;5753801;22;97502;-45
2024/03/27 09:01:11;;;;;;;1.93;0.80;;;15.00;99.90;;;14.92;52.64;98240.94;5751161;22;103453;-41
2024/03/27 09:04:08;;;;;;;0.70;0.63;;;14.90;99.90;;;14.96;52.07;98244.97;5797523;22;101766;-41
2024/03/27 09:07:01;;;;;;;2.13;0.87;;;14.90;99.90;;;14.91;52.64;98249.88;5843702;22;97842;-44
2024/03/27 09:09:32;;;;;;;1.60;0.70;;;14.90;99.90;;;15.00;51.55;98253.47;5685950;22;99100;-43
2024/03/27 09:12:15;;;;;;;0.97;0.60;;;14.90;99.90;;;14.92;52.55;98262.16;5833951;22;99712;-44
2024/03/27 09:15:07;;;;;;;0.77;0.50;;;14.90;99.90;;;15.02;51.66;98249.72;5735580;22;99490;-45
2024/03/27 09:17:45;;;;;;;0.40;0.40;;;14.90;99.90;;;14.79;52.60;98245.69;5768868;22;104068;-44
2024/03/27 09:20:51;;;;;;;0.57;0.40;;;14.80;99.90;;;14.85;52.21;98251.25;5792448;22;100172;-42
2024/03/27 09:23:41;;;;;;;0.87;0.50;;;14.80;99.90;;;14.92;51.69;98262.16;5725599;22;103348;-44
2024/03/27 09:26:44;;;;;;;0.83;0.63;;;14.80;99.90;;;14.76;53.39;98261.88;5829909;22;101951;-43
2024/03/27 09:29:16;;;;;;;2.60;0.70;;;14.80;99.90;;;14.88;51.81;98258.09;5890258;22;97853;-43
2024/03/27 09:31:43;;;;;;;0.77;0.70;;;14.80;99.90;;;14.83;53.22;98252.38;5826629;22;98233;-46
2024/03/27 09:34:41;;;;;;;0.37;0.37;;;14.80;99.90;;;14.80;53.28;98252.66;5885409;22;131333;-43
2024/03/27 09:37:36;;;;;;;1.07;0.73;;;14.80;99.90;;;14.75;52.99;98255.72;5779239;23;101783;-43
2024/03/27 09:40:43;;;;;;;1.10;0.60;;;14.70;99.90;;;14.85;52.65;98253.06;5787254;22;97581;-43
2024/03/27 09:43:32;;;;;;;2.13;1.20;;;14.70;99.90;;;15.01;51.25;98265.78;5922188;22;100887;-42
2024/03/27 09:46:26;;;;;;;2.30;1.00;;;14.90;99.90;;;14.78;52.50;98266.06;5826540;22;105090;-44
2024/03/27 09:49:22;;;;;;;0.90;0.70;;;14.80;99.90;;;14.81;52.12;98275.56;5673823;23;101156;-39
2024/03/27 09:51:53;;;;;;;2.10;0.90;;;14.80;99.90;;;14.65;52.31;98269.97;5845060;22;101180;-43
2024/03/27 09:55:02;;;;;;;1.20;0.83;;;14.70;99.90;;;14.65;52.21;98272.63;5733527;22;99078;-45
2024/03/27 09:57:45;;;;;;;0.67;0.60;;;14.60;99.90;;;14.69;52.50;98260.75;5804720;22;101753;-46
2024/03/27 10:00:44;;;;;;;5.20;0.93;;;14.70;99.90;;;14.51;52.82;98266.72;5758911;22;98011;-43
2024/03/27 10:03:17;;;;;;;1.93;0.90;;;14.50;99.90;;;14.41;52.76;98268.50;5762206;22;103817;-44
2024/03/27 10:06:15;;;;;;;3.60;0.70;;;14.50;99.90;;;14.33;53.82;98260.38;5742154;22;99356;-43
2024/03/27 10:09:08;;;;;;;0.70;0.63;;;14.40;99.90;;;14.34;53.25;98267.38;5812153;23;102227;-43
2024/03/27 10:12:15;;;;;;;1.50;0.87;;;14.40;99.90;;;14.45;52.94;98264.59;5817064;22;101109;-43
2024/03/27 10:15:05;;;;;;;2.37;1.40;;;14.30;99.90;;;14.35;53.31;98269.03;5569487;23;106471;-39
2024/03/27 10:17:43;;;;;;;1.10;0.90;;;14.40;99.90;;;14.56;52.46;98282.22;5727354;22;99799;-44
2024/03/27 10:20:39;;;;;;;0.77;0.57;;;14.50;99.90;;;14.40;53.16;98298.63;5606516;22;102912;-41
2024/03/27 10:23:39;;;;;;;1.23;1.00;;;14.40;99.90;;;14.43;52.80;98287.75;5615604;22;105115;-45
2024/03/27 10:26:30;;;;;;;1.23;0.97;;;14.50;99.90;;;14.35;52.90;98292.91;5626545;23;97801;-39
2024/03/27 10:29:38;;;;;;;1.83;0.97;;;14.40;99.90;;;14.62;52.48;98300.28;5638187;22;99966;-42
2024/03/27 10:32:32;;;;;;;1.43;1.17;;;14.50;99.90;;;14.76;51.55;98317.59;5584213;23;104498;-43
2024/03/27 10:38:18;;;;;;;0.93;0.70;;;14.90;99.90;;;14.78;51.63;98332.41;5615948;22;98338;-46
2024/03/27 10:41:02;;;;;;;0.80;0.67;;;14.90;99.90;;;14.96;51.29;98337.88;5650680;22;99193;-40
2024/03/27 10:44:14;;;;;;;1.57;0.90;;;15.00;99.90;;;15.03;51.26;98331.00;5730192;23;101598;-45
2024/03/27 10:47:49;;;;;;;1.70;1.10;;;15.10;99.90;;;15.14;51.72;98333.53;5633062;22;98902;-41
2024/03/27 10:50:46;;;;;;;1.30;1.00;;;15.20;99.90;;;15.16;50.90;98334.25;5437212;23;100858;-44
2024/03/27 10:59:22;;;;;;;2.00;0.90;;;15.00;99.90;;;14.87;52.48;98333.38;6067271;22;97792;-43
2024/03/27 11:02:00;;;;;;;2.13;1.30;;;14.90;99.90;;;14.73;53.27;98347.88;6103058;22;97525;-40
2024/03/27 11:04:30;;;;;;;1.70;1.27;;;14.70;99.90;;;14.53;53.66;98341.69;5999847;22;97799;-47
2024/03/27 11:06:59;;;;;;;1.60;1.40;;;14.60;99.90;;;14.49;53.82;98350.06;6036830;22;102407;-46
2024/03/27 11:09:27;;;;;;;2.30;1.50;;;14.40;99.90;;;14.44;53.85;98342.50;6038760;22;98835;-47
2024/03/27 11:11:56;;;;;;;2.00;1.10;;;14.50;99.90;;;14.43;53.80;98346.09;6047973;22;115949;-45
2024/03/27 11:14:25;;;;;;;1.93;1.20;;;14.40;99.90;;;14.47;53.46;98346.72;6012646;22;97693;-47
2024/03/27 11:16:59;;;;;;;2.13;1.20;;;14.50;99.90;;;14.42;53.83;98347.06;6024456;22;101943;-41
2024/03/27 11:19:40;;;;;;;2.20;1.30;;;14.50;99.90;;;14.39;54.08;98349.16;5927807;22;102109;-45
2024/03/27 11:22:17;;;;;;;1.47;1.00;;;14.50;99.90;;;14.37;54.30;98341.34;6048385;22;97109;-46
2024/03/27 11:24:45;;;;;;;1.13;0.93;;;14.50;99.90;;;14.21;55.17;98352.44;6076674;22;100576;-48